Time;durP1;ratioP1;P1;durP2;ratioP2;P2;SDS_P1;SDS_P2;PMS_P1;PMS_P2;Temp;Humidity;BMP_temperature;BMP_pressure;BME280_temperature;BME280_humidity;BME280_pressure;Samples;Min_cycle;Max_cycle;Signal;HPM_P1;HPM_P2
2021/09/24 00:01:55;;;;;;;3;2;;;;;;;10.56;87.26953;941.0416;;;;
2021/09/24 00:04:22;;;;;;;3.6;2.2;;;;;;;10.52;86.7832;941.0506;;;;
2021/09/24 00:06:47;;;;;;;2.7;2;;;;;;;10.56;86.4248;941.0917;;;;
2021/09/24 00:09:13;;;;;;;5.9;2.2;;;;;;;10.57;86.70996;941.0631;;;;
2021/09/24 00:11:38;;;;;;;3.5;2.1;;;;;;;10.45;86.76855;941.0726;;;;
2021/09/24 00:14:03;;;;;;;2.7;2;;;;;;;10.43;86.53711;941.1417;;;;
2021/09/24 00:16:29;;;;;;;2.9;2.1;;;;;;;10.4;86.66797;941.2182;;;;
2021/09/24 00:18:54;;;;;;;3.8;1.9;;;;;;;10.24;87.4668;941.1727;;;;
2021/09/24 00:21:19;;;;;;;2.6;2;;;;;;;10.14;87.27539;941.2056;;;;
2021/09/24 00:23:44;;;;;;;2.7;1.9;;;;;;;10.18;86.90625;941.1895;;;;
2021/09/24 00:26:09;;;;;;;2.4;1.8;;;;;;;10.18;87.80957;941.1888;;;;
2021/09/24 00:28:35;;;;;;;2.5;1.8;;;;;;;10.11;87.53223;941.1273;;;;
2021/09/24 00:31:00;;;;;;;2;1.8;;;;;;;10.28;86.95117;941.1463;;;;
2021/09/24 00:33:27;;;;;;;2.8;2.1;;;;;;;10.3;87.27637;941.0225;;;;
2021/09/24 00:35:54;;;;;;;1.7;1.5;;;;;;;10.23;87.80762;941.0835;;;;
2021/09/24 00:38:19;;;;;;;2;1.6;;;;;;;10.24;87.65137;941.0948;;;;
2021/09/24 00:40:44;;;;;;;2.4;1.4;;;;;;;10.25;87.51563;941.0464;;;;
2021/09/24 00:43:10;;;;;;;1.7;1.5;;;;;;;10.27;87.27051;941.0706;;;;
2021/09/24 00:45:39;;;;;;;2.4;1.6;;;;;;;10.18;87.2832;941.0033;;;;
2021/09/24 00:48:04;;;;;;;3.7;1.8;;;;;;;10.21;86.81055;941.0614;;;;
2021/09/24 00:50:29;;;;;;;3.2;1.7;;;;;;;10.08;86.99121;941.1093;;;;
2021/09/24 00:52:55;;;;;;;2.2;1.8;;;;;;;9.94;87.13477;941.1227;;;;
2021/09/24 00:55:20;;;;;;;2.4;1.6;;;;;;;9.83;87.74707;941.1184;;;;
2021/09/24 00:57:45;;;;;;;3.4;1.9;;;;;;;9.7;88.41895;941.1486;;;;
2021/09/24 01:00:13;;;;;;;3.7;2;;;;;;;9.63;88.9375;941.0662;;;;
2021/09/24 01:02:38;;;;;;;3;1.5;;;;;;;9.65;88.91992;941.0627;;;;
2021/09/24 01:05:08;;;;;;;4.7;1.9;;;;;;;9.44;89.53809;941.0181;;;;
2021/09/24 01:07:34;;;;;;;2;1.7;;;;;;;9.22;90.89355;940.9932;;;;
2021/09/24 01:12:48;;;;;;;3.1;1.9;;;;;;;9.39;90.38086;940.9208;;;;
2021/09/24 01:15:15;;;;;;;4.3;2;;;;;;;9.36;90.60254;940.8647;;;;
2021/09/24 01:17:40;;;;;;;2.2;1.9;;;;;;;9.55;89.88867;940.9349;;;;
2021/09/24 01:20:05;;;;;;;3.3;1.8;;;;;;;9.64;89.1123;940.827;;;;
2021/09/24 01:22:31;;;;;;;2.3;1.8;;;;;;;9.67;88.78711;940.9373;;;;
2021/09/24 01:24:57;;;;;;;3.2;2.1;;;;;;;9.76;87.92871;940.9285;;;;
2021/09/24 01:27:22;;;;;;;2.1;1.7;;;;;;;9.76;87.3125;940.899;;;;
2021/09/24 01:29:48;;;;;;;2.7;1.9;;;;;;;9.78;87.23633;940.8477;;;;
2021/09/24 01:32:13;;;;;;;3.2;2;;;;;;;9.81;86.99121;940.7964;;;;
2021/09/24 01:34:42;;;;;;;3.3;2.1;;;;;;;9.62;87.68262;940.7814;;;;
2021/09/24 01:37:07;;;;;;;4.8;1.9;;;;;;;9.54;88.06641;940.7894;;;;
2021/09/24 01:39:33;;;;;;;2;1.7;;;;;;;9.35;88.60645;940.7395;;;;
2021/09/24 01:41:58;;;;;;;2.3;1.7;;;;;;;9.26;89.21582;940.7698;;;;
2021/09/24 01:44:25;;;;;;;2.3;1.6;;;;;;;9.28;89.08301;940.7058;;;;
2021/09/24 01:46:50;;;;;;;4;1.8;;;;;;;9.27;89.33203;940.6921;;;;
2021/09/24 01:49:15;;;;;;;2.7;1.9;;;;;;;9.3;88.86133;940.7579;;;;
2021/09/24 01:51:40;;;;;;;2.6;2.1;;;;;;;9.29;89.1416;940.8443;;;;
2021/09/24 01:54:07;;;;;;;2.5;1.4;;;;;;;9.31;88.85156;940.7675;;;;
2021/09/24 01:56:32;;;;;;;2.8;1.8;;;;;;;9.2;89.23926;940.7447;;;;
2021/09/24 01:58:59;;;;;;;3.2;1.9;;;;;;;9.18;89.19922;940.6505;;;;
2021/09/24 02:01:24;;;;;;;4.2;2.2;;;;;;;9.17;89.51563;940.6351;;;;
2021/09/24 02:03:50;;;;;;;2.2;1.7;;;;;;;9.24;89.19922;940.6741;;;;
2021/09/24 02:06:15;;;;;;;4;1.8;;;;;;;9.21;88.72656;940.5865;;;;
2021/09/24 02:08:44;;;;;;;4;1.8;;;;;;;9.29;88.20801;940.5692;;;;
2021/09/24 02:11:11;;;;;;;2.8;1.6;;;;;;;9.29;88.20801;940.6353;;;;
2021/09/24 02:13:34;;;;;;;1.9;1.7;;;;;;;9.21;88.58984;940.6303;;;;
2021/09/24 02:15:59;;;;;;;2.7;1.9;;;;;;;9.27;88.50098;940.5761;;;;
2021/09/24 02:18:24;;;;;;;2.4;1.9;;;;;;;9.31;88.28223;940.5189;;;;
2021/09/24 02:20:50;;;;;;;2.3;1.8;;;;;;;9.29;88.27832;940.5845;;;;
2021/09/24 02:23:15;;;;;;;3.7;1.7;;;;;;;9.3;88.32617;940.657;;;;
2021/09/24 02:25:40;;;;;;;2.3;1.6;;;;;;;9.25;88.46289;940.5837;;;;
2021/09/24 02:28:05;;;;;;;3.2;1.9;;;;;;;9.28;88.27441;940.647;;;;
2021/09/24 02:30:30;;;;;;;3.3;1.9;;;;;;;9.24;88.25391;940.6351;;;;
2021/09/24 02:32:56;;;;;;;1.9;1.5;;;;;;;9.31;88.04297;940.5792;;;;
2021/09/24 02:35:21;;;;;;;2.8;1.8;;;;;;;9.23;88.24316;940.6239;;;;
2021/09/24 02:37:52;;;;;;;2.9;1.7;;;;;;;9.25;88.18945;940.6449;;;;
2021/09/24 02:40:21;;;;;;;2.5;1.4;;;;;;;9.21;88.61328;940.6486;;;;
2021/09/24 02:42:46;;;;;;;1.5;1.4;;;;;;;9.17;88.56934;940.6066;;;;
2021/09/24 02:45:11;;;;;;;2.2;1.4;;;;;;;9.25;88.34863;940.5447;;;;
2021/09/24 02:47:37;;;;;;;1.9;1.6;;;;;;;9.23;88.70801;940.5698;;;;
2021/09/24 02:50:02;;;;;;;2.6;1.7;;;;;;;9.27;88.45703;940.5714;;;;
2021/09/24 02:52:28;;;;;;;2.3;1.8;;;;;;;9.26;88.11133;940.5474;;;;
2021/09/24 02:54:53;;;;;;;2.1;1.5;;;;;;;9.36;87.89258;940.5698;;;;
2021/09/24 02:57:19;;;;;;;2.6;1.6;;;;;;;9.49;86.49512;940.5078;;;;
2021/09/24 02:59:44;;;;;;;1.5;1.4;;;;;;;9.55;85.58301;940.4294;;;;
2021/09/24 03:02:09;;;;;;;1.6;1.5;;;;;;;9.63;85.17969;940.5097;;;;
2021/09/24 03:04:35;;;;;;;2.7;1.7;;;;;;;9.66;84.83203;940.4983;;;;
2021/09/24 03:07:02;;;;;;;1.6;1.4;;;;;;;9.7;84.50781;940.5466;;;;
2021/09/24 03:09:27;;;;;;;1.6;1.4;;;;;;;9.7;84.24805;940.6142;;;;
2021/09/24 03:11:52;;;;;;;2;1.5;;;;;;;9.52;84.83691;940.6459;;;;
2021/09/24 03:14:17;;;;;;;1.6;1.2;;;;;;;9.36;85.95703;940.6127;;;;
2021/09/24 03:16:43;;;;;;;2.1;1.5;;;;;;;9.27;86.36035;940.573;;;;
2021/09/24 03:19:07;;;;;;;5.4;2.1;;;;;;;9.15;87.19043;940.6245;;;;
2021/09/24 03:21:33;;;;;;;2.5;1.6;;;;;;;9;88.02637;940.6024;;;;
2021/09/24 03:23:58;;;;;;;2.1;1.5;;;;;;;8.9;88.93652;940.5544;;;;
2021/09/24 03:26:27;;;;;;;3.2;1.7;;;;;;;8.92;88.68066;940.736;;;;
2021/09/24 03:28:52;;;;;;;1.6;1.5;;;;;;;8.92;88.88379;940.6167;;;;
2021/09/24 03:31:22;;;;;;;4;1.8;;;;;;;9;88.33105;940.7938;;;;
2021/09/24 03:33:47;;;;;;;2.3;1.8;;;;;;;9.02;88.02734;940.8039;;;;
2021/09/24 03:36:13;;;;;;;2.7;1.6;;;;;;;9.02;87.7793;940.8628;;;;
2021/09/24 03:38:38;;;;;;;3.2;1.8;;;;;;;8.95;88.03809;940.8318;;;;
2021/09/24 03:41:03;;;;;;;1.7;1.5;;;;;;;8.88;88.31836;940.8447;;;;
2021/09/24 03:43:31;;;;;;;5.2;2.4;;;;;;;8.88;88.45508;940.8939;;;;
2021/09/24 03:45:56;;;;;;;2.6;1.7;;;;;;;8.87;88.57813;940.9001;;;;
2021/09/24 03:48:21;;;;;;;3;1.6;;;;;;;8.91;88.48535;940.9819;;;;
2021/09/24 03:50:46;;;;;;;2.1;1.6;;;;;;;9.06;87.61621;940.9501;;;;
2021/09/24 03:53:11;;;;;;;2.7;1.8;;;;;;;9.01;87.66211;940.965;;;;
2021/09/24 03:55:36;;;;;;;2.6;1.5;;;;;;;9.03;87.38281;940.9622;;;;
2021/09/24 03:58:01;;;;;;;2.4;1.6;;;;;;;9.15;87.12402;940.9861;;;;
2021/09/24 04:02:31;;;;;;;4.5;1.6;;;;;;;9.17;86.69336;940.9473;;;;
2021/09/24 04:04:59;;;;;;;1.4;1.3;;;;;;;9.12;86.54785;940.968;;;;
2021/09/24 04:07:21;;;;;;;1.6;1.5;;;;;;;8.91;87.52637;940.9428;;;;
2021/09/24 04:09:46;;;;;;;3.1;2.2;;;;;;;8.69;88.65527;940.9508;;;;
2021/09/24 04:12:12;;;;;;;2.5;2.3;;;;;;;8.69;88.95215;940.9867;;;;
2021/09/24 04:14:37;;;;;;;4.3;2.1;;;;;;;8.63;89.62109;940.9648;;;;
2021/09/24 04:17:02;;;;;;;4.2;1.9;;;;;;;8.58;89.74609;940.9348;;;;
2021/09/24 04:19:27;;;;;;;3.5;2;;;;;;;8.62;89.84473;941.0073;;;;
2021/09/24 04:21:52;;;;;;;4.4;2.2;;;;;;;8.75;88.98438;941.0402;;;;
2021/09/24 04:24:17;;;;;;;2.5;1.8;;;;;;;8.75;88.47266;941.0156;;;;
2021/09/24 04:26:44;;;;;;;2;1.8;;;;;;;8.74;88.31348;940.9996;;;;
2021/09/24 04:29:07;;;;;;;3.3;1.8;;;;;;;8.78;88.10449;941.0496;;;;
2021/09/24 04:31:32;;;;;;;3.6;1.9;;;;;;;8.75;87.84766;941.0927;;;;
2021/09/24 04:33:58;;;;;;;2.1;1.8;;;;;;;8.83;87.47949;941.1161;;;;
2021/09/24 04:36:23;;;;;;;2.7;1.8;;;;;;;8.87;87.27051;941.0914;;;;
2021/09/24 04:38:48;;;;;;;4.2;1.6;;;;;;;8.9;86.96875;941.0792;;;;
2021/09/24 04:41:13;;;;;;;2;1.5;;;;;;;8.73;87.50293;941.0455;;;;
2021/09/24 04:43:39;;;;;;;2.5;1.4;;;;;;;8.7;87.95215;940.994;;;;
2021/09/24 04:46:03;;;;;;;3.6;1.4;;;;;;;8.78;87.625;941.0352;;;;
2021/09/24 04:48:31;;;;;;;3.7;1.7;;;;;;;8.84;87.28613;941.0375;;;;
2021/09/24 04:51:00;;;;;;;2.7;1.6;;;;;;;8.81;87.32617;941.0345;;;;
2021/09/24 04:53:25;;;;;;;2.8;1.4;;;;;;;8.72;87.77539;941.0189;;;;
2021/09/24 04:55:50;;;;;;;3.4;1.6;;;;;;;8.4;89.27734;941.0322;;;;
2021/09/24 04:58:15;;;;;;;2.7;1.5;;;;;;;8.35;89.5957;941.035;;;;
2021/09/24 05:00:40;;;;;;;3.7;1.7;;;;;;;8.46;89.19727;941.1163;;;;
2021/09/24 05:03:07;;;;;;;2.4;1.6;;;;;;;8.5;89.0459;941.0847;;;;
2021/09/24 05:05:32;;;;;;;2.9;1.6;;;;;;;8.55;88.55664;941.0928;;;;
2021/09/24 05:07:58;;;;;;;2.7;1.7;;;;;;;8.54;88.38672;941.1492;;;;
2021/09/24 05:10:23;;;;;;;2.5;1.5;;;;;;;8.56;88.46777;941.1208;;;;
2021/09/24 05:12:49;;;;;;;2;1.7;;;;;;;8.65;88.12305;941.1111;;;;
2021/09/24 05:15:14;;;;;;;2.8;1.5;;;;;;;8.64;88.06543;941.2079;;;;
2021/09/24 05:17:39;;;;;;;2.3;1.5;;;;;;;8.66;88.05859;941.1948;;;;
2021/09/24 05:20:04;;;;;;;3;1.8;;;;;;;8.65;87.81738;941.2351;;;;
2021/09/24 05:22:29;;;;;;;3.9;2;;;;;;;8.82;86.7832;941.2294;;;;
2021/09/24 05:24:55;;;;;;;2.2;1.7;;;;;;;8.64;87.38184;941.2593;;;;
2021/09/24 05:27:20;;;;;;;2.7;1.8;;;;;;;8.5;88.43359;941.2839;;;;
2021/09/24 05:29:52;;;;;;;2.1;1.7;;;;;;;8.44;88.8418;941.2919;;;;
2021/09/24 05:32:14;;;;;;;4.3;2;;;;;;;8.53;89.47363;941.2178;;;;
2021/09/24 05:34:37;;;;;;;2.6;2;;;;;;;8.6;88.98828;941.2145;;;;
2021/09/24 05:37:02;;;;;;;5.3;2.4;;;;;;;8.6;88.90918;941.2011;;;;
2021/09/24 05:42:08;;;;;;;3.6;2.4;;;;;;;8.73;88.51465;941.2827;;;;
2021/09/24 05:44:33;;;;;;;4.4;2.9;;;;;;;8.84;89.27832;941.1996;;;;
2021/09/24 05:46:58;;;;;;;1.7;1.3;;;;;;;9.21;86.47266;941.1984;;;;
2021/09/24 05:49:29;;;;;;;3.7;1.9;;;;;;;9.56;85.60938;941.2499;;;;
2021/09/24 05:51:49;;;;;;;3;1.7;;;;;;;10.15;82.05469;941.2751;;;;
2021/09/24 05:54:14;;;;;;;2;1.5;;;;;;;10.8;79.8584;941.3558;;;;
2021/09/24 05:56:39;;;;;;;2;1.5;;;;;;;11.03;78.14941;941.3704;;;;
2021/09/24 05:59:04;;;;;;;2.5;1.4;;;;;;;11.1;78.12988;941.2789;;;;
2021/09/24 06:01:31;;;;;;;1.7;1.3;;;;;;;11.31;76.45215;941.3685;;;;
2021/09/24 06:03:56;;;;;;;1.6;1.2;;;;;;;11.51;75.96191;941.3016;;;;
2021/09/24 06:06:22;;;;;;;1.5;1.4;;;;;;;11.57;74.94141;941.3047;;;;
2021/09/24 06:08:50;;;;;;;2.6;1.7;;;;;;;11.76;74.31055;941.3427;;;;
2021/09/24 06:11:12;;;;;;;2.6;1.8;;;;;;;12.01;74.77734;941.3744;;;;
2021/09/24 06:13:37;;;;;;;3;1.8;;;;;;;12.38;73.85547;941.4267;;;;
2021/09/24 06:16:02;;;;;;;2.5;2;;;;;;;11.77;74.11719;941.433;;;;
2021/09/24 06:18:30;;;;;;;4.7;2.2;;;;;;;11.04;79.10156;941.4416;;;;
2021/09/24 06:20:53;;;;;;;2.7;2;;;;;;;11.46;77.32422;941.4956;;;;
2021/09/24 06:23:19;;;;;;;4;2.3;;;;;;;11.48;76.0918;941.5006;;;;
2021/09/24 06:25:44;;;;;;;1.9;1.5;;;;;;;11.46;75.92871;941.4702;;;;
2021/09/24 06:28:09;;;;;;;3.5;1.4;;;;;;;11.48;75.34961;941.4551;;;;
2021/09/24 06:30:35;;;;;;;1.9;1.4;;;;;;;11.46;76.08984;941.4741;;;;
2021/09/24 06:33:00;;;;;;;3.2;1.6;;;;;;;11.46;76.3418;941.4709;;;;
2021/09/24 06:35:25;;;;;;;4.8;2;;;;;;;11.87;78.25879;941.4625;;;;
2021/09/24 06:37:50;;;;;;;2.5;1.4;;;;;;;12.1;76.30371;941.5175;;;;
2021/09/24 06:40:15;;;;;;;1.6;1.4;;;;;;;11.76;74.92676;941.432;;;;
2021/09/24 06:42:40;;;;;;;1.8;1.6;;;;;;;11.52;76.6377;941.4348;;;;
2021/09/24 06:45:05;;;;;;;1.8;1.3;;;;;;;11.26;77.32422;941.3711;;;;
2021/09/24 06:47:32;;;;;;;3.4;1.6;;;;;;;11.46;77.75879;941.3936;;;;
2021/09/24 06:49:57;;;;;;;3.3;1.7;;;;;;;11.9;76.62598;941.387;;;;
2021/09/24 06:52:24;;;;;;;1.8;1.5;;;;;;;12.19;74.85254;941.3706;;;;
2021/09/24 06:54:48;;;;;;;3.9;1.5;;;;;;;12.26;74.5;941.3914;;;;
2021/09/24 06:57:15;;;;;;;2.7;1.3;;;;;;;12.36;72.30469;941.3658;;;;
2021/09/24 06:59:40;;;;;;;3.5;1.9;;;;;;;12.82;71.15137;941.4328;;;;
2021/09/24 07:02:07;;;;;;;2.1;1.5;;;;;;;13.07;70.27344;941.3929;;;;
2021/09/24 07:04:32;;;;;;;1.5;1.3;;;;;;;13.12;68.70801;941.3308;;;;
2021/09/24 07:06:58;;;;;;;1.3;1.2;;;;;;;13.35;69.89355;941.4291;;;;
2021/09/24 07:11:51;;;;;;;4.6;1.4;;;;;;;13.85;67.61523;941.3658;;;;
2021/09/24 07:14:13;;;;;;;1.5;1.3;;;;;;;14.02;65.61621;941.3783;;;;
2021/09/24 07:16:38;;;;;;;15.6;11.2;;;;;;;14.37;64.50586;941.4316;;;;
2021/09/24 07:19:03;;;;;;;8.7;6.7;;;;;;;14.41;63.3125;941.3387;;;;
2021/09/24 07:21:30;;;;;;;3.3;2.2;;;;;;;14.64;65.01855;941.3474;;;;
2021/09/24 07:23:55;;;;;;;1.5;1.3;;;;;;;14.69;62.24805;941.4091;;;;
2021/09/24 07:26:21;;;;;;;1.2;1;;;;;;;14.4;61.90625;941.3588;;;;
2021/09/24 07:28:46;;;;;;;1.4;1;;;;;;;14.77;61.91113;941.3753;;;;
2021/09/24 07:31:13;;;;;;;1.1;1;;;;;;;15.38;61.80371;941.4129;;;;
2021/09/24 07:33:39;;;;;;;2;1;;;;;;;15.75;61.06836;941.3446;;;;
2021/09/24 07:36:05;;;;;;;1.6;1;;;;;;;15.58;57.78906;941.4155;;;;
2021/09/24 07:38:30;;;;;;;2.5;1;;;;;;;16.29;57.26855;941.387;;;;
2021/09/24 07:40:57;;;;;;;1.6;1.1;;;;;;;16.6;55.29492;941.3163;;;;
2021/09/24 07:43:22;;;;;;;4.3;1.4;;;;;;;17.12;53.80664;941.2352;;;;
2021/09/24 07:45:48;;;;;;;1.4;1.1;;;;;;;17.66;51.63477;941.3166;;;;
2021/09/24 07:48:14;;;;;;;2;1.2;;;;;;;17.73;51.99023;941.3603;;;;
2021/09/24 07:50:41;;;;;;;2.2;1.3;;;;;;;18.13;50.09668;941.3425;;;;
2021/09/24 07:53:06;;;;;;;1.7;1.3;;;;;;;18.1;51.9873;941.3211;;;;
2021/09/24 07:55:32;;;;;;;2;1.8;;;;;;;17.99;51.20801;941.2659;;;;
2021/09/24 07:57:57;;;;;;;2.4;1.2;;;;;;;18.55;53.66895;941.2759;;;;
2021/09/24 08:00:28;;;;;;;1.5;1.1;;;;;;;18.52;51.47852;941.1434;;;;
2021/09/24 08:02:54;;;;;;;1.5;1.1;;;;;;;19.53;49.09082;941.2428;;;;
2021/09/24 08:05:18;;;;;;;1.8;1.3;;;;;;;20.34;47.53516;941.217;;;;
2021/09/24 08:07:44;;;;;;;1.6;1.1;;;;;;;20.7;46.35742;941.2156;;;;
2021/09/24 08:10:09;;;;;;;1.3;0.9;;;;;;;20.91;43.74805;941.2463;;;;
2021/09/24 08:12:35;;;;;;;1.4;1;;;;;;;21.6;44.78906;941.2158;;;;
2021/09/24 08:15:00;;;;;;;1.3;1;;;;;;;22.85;42.07324;941.1856;;;;
2021/09/24 08:17:25;;;;;;;1.1;1;;;;;;;23.91;39.4209;941.2147;;;;
2021/09/24 08:19:53;;;;;;;2.5;1.1;;;;;;;24.39;36.84668;941.149;;;;
2021/09/24 08:22:18;;;;;;;2.8;1;;;;;;;24.16;37.0752;941.199;;;;
2021/09/24 08:24:47;;;;;;;0.9;0.9;;;;;;;26.3;34.31738;941.0799;;;;
2021/09/24 08:27:13;;;;;;;2.2;1.1;;;;;;;27.86;32.08594;941.0679;;;;
2021/09/24 08:29:41;;;;;;;905.4;174.1;;;;;;;27.56;31.18652;941.1031;;;;
2021/09/24 08:32:13;;;;;;;1545.9;390.1;;;;;;;29.43;30.49316;941.0838;;;;
2021/09/24 08:34:37;;;;;;;1999.9;999.9;;;;;;;27.97;31.05957;941.1211;;;;
2021/09/24 08:37:04;;;;;;;1999.9;999.9;;;;;;;26.42;34.42188;941.157;;;;
2021/09/24 08:39:30;;;;;;;1999.9;999.9;;;;;;;26.26;35.04785;941.0909;;;;
2021/09/24 08:41:57;;;;;;;1999.9;756.3;;;;;;;24.66;41.00684;941.1335;;;;
2021/09/24 08:44:26;;;;;;;1999.9;923.7;;;;;;;26.02;40.05566;941.1276;;;;
2021/09/24 08:46:47;;;;;;;1999.9;999.9;;;;;;;26.32;38.6748;941.0904;;;;
2021/09/24 08:49:13;;;;;;;1999.9;999.9;;;;;;;24.75;40.7207;941.1747;;;;
2021/09/24 08:51:40;;;;;;;1999.9;847.9;;;;;;;24.21;41.21387;941.0873;;;;
2021/09/24 08:54:05;;;;;;;1999.9;766.7;;;;;;;25.89;37.7627;941.02;;;;
2021/09/24 08:56:30;;;;;;;1999.9;999.9;;;;;;;26.29;35.89063;941.0184;;;;
2021/09/24 08:58:57;;;;;;;1999.9;999.9;;;;;;;26.28;35.21484;940.9936;;;;
2021/09/24 09:01:22;;;;;;;1999.9;999.9;;;;;;;26.34;35.48145;940.9866;;;;
2021/09/24 09:03:50;;;;;;;1999.9;999.9;;;;;;;25.08;37.09277;941.0119;;;;
2021/09/24 09:06:15;;;;;;;1999.9;845;;;;;;;23.66;40.06836;940.9829;;;;
2021/09/24 09:08:40;;;;;;;1999.9;731.5;;;;;;;23.43;39.27148;940.8786;;;;
2021/09/24 09:11:08;;;;;;;1999.9;747.3;;;;;;;22.38;42.26465;940.9529;;;;
2021/09/24 09:13:33;;;;;;;1999.9;409.9;;;;;;;21.53;46.67969;940.9763;;;;
2021/09/24 09:19:38;;;;;;;698.8;95.9;;;;;;;21.19;48.37402;940.9331;;;;
2021/09/24 09:22:06;;;;;;;142.6;13.6;;;;;;;20.86;47.5791;940.9803;;;;
2021/09/24 09:24:31;;;;;;;2.2;1.6;;;;;;;20.96;50.33691;940.8359;;;;
2021/09/24 09:27:14;;;;;;;1.6;1.5;;;;;;;21.45;49.26953;940.8285;;;;
2021/09/24 09:29:39;;;;;;;27.7;4.2;;;;;;;20.61;51.53516;940.9149;;;;
2021/09/24 09:32:07;;;;;;;8.2;2.3;;;;;;;20.07;54.86816;940.8599;;;;
2021/09/24 09:34:29;;;;;;;2.7;2;;;;;;;20.03;55.75098;940.8541;;;;
2021/09/24 09:37:24;;;;;;;2;1.8;;;;;;;20.64;51.75;940.8602;;;;
2021/09/24 09:40:03;;;;;;;1.8;1.7;;;;;;;20.63;54.76465;940.836;;;;
2021/09/24 09:42:28;;;;;;;1.9;1.7;;;;;;;21.11;51.50098;940.7966;;;;
2021/09/24 09:44:53;;;;;;;2.2;1.9;;;;;;;20.93;53.99414;940.8594;;;;
2021/09/24 09:47:18;;;;;;;2.1;1.9;;;;;;;20.7;53.70801;940.8264;;;;
2021/09/24 09:49:51;;;;;;;2.3;2.1;;;;;;;20.64;55.75781;940.8375;;;;
2021/09/24 09:52:12;;;;;;;3.5;2.2;;;;;;;20.58;55.43457;940.8008;;;;
2021/09/24 09:54:37;;;;;;;2.3;2.1;;;;;;;20.74;55.45605;940.7783;;;;
2021/09/24 09:57:03;;;;;;;2.2;2;;;;;;;20.62;55.25293;940.7503;;;;
2021/09/24 09:59:29;;;;;;;2.6;2.1;;;;;;;20.89;54.37402;940.6995;;;;
2021/09/24 10:01:56;;;;;;;3.3;2.3;;;;;;;20.81;58.03613;940.7124;;;;
2021/09/24 10:04:21;;;;;;;2.9;2.3;;;;;;;20.95;57.01367;940.6216;;;;
2021/09/24 10:06:48;;;;;;;2.8;2.3;;;;;;;20.93;57.30176;940.6367;;;;
2021/09/24 10:09:14;;;;;;;2.6;2.4;;;;;;;21.05;56.31152;940.6251;;;;
2021/09/24 10:11:38;;;;;;;3.3;2.5;;;;;;;20.94;58.25195;940.588;;;;
2021/09/24 10:14:03;;;;;;;3.6;2.7;;;;;;;21.11;57.13965;940.6192;;;;
2021/09/24 10:16:28;;;;;;;3;2.7;;;;;;;20.72;59.4375;940.5853;;;;
2021/09/24 10:18:53;;;;;;;2.8;2.5;;;;;;;20.49;58.71777;940.5594;;;;
2021/09/24 10:21:18;;;;;;;3;2.6;;;;;;;20.99;58;940.5753;;;;
2021/09/24 10:23:44;;;;;;;3.3;2.9;;;;;;;21.03;58.71973;940.5145;;;;
2021/09/24 10:26:10;;;;;;;4;2.9;;;;;;;21.18;58.16602;940.4992;;;;
2021/09/24 10:28:35;;;;;;;2.9;2.2;;;;;;;21.53;57.32227;940.4956;;;;
2021/09/24 10:31:00;;;;;;;3.9;2.6;;;;;;;21.8;55.10645;940.4127;;;;
2021/09/24 10:33:25;;;;;;;3.9;2.9;;;;;;;21.67;58.38281;940.4131;;;;
2021/09/24 10:35:51;;;;;;;3.5;3.1;;;;;;;21.82;56.67969;940.3853;;;;
2021/09/24 10:38:16;;;;;;;3.2;2.9;;;;;;;22.01;59.11816;940.3781;;;;
2021/09/24 10:40:42;;;;;;;3.5;2.7;;;;;;;22.27;56.10449;940.3145;;;;
2021/09/24 10:43:07;;;;;;;4.1;3;;;;;;;21.66;59.77441;940.3147;;;;
2021/09/24 10:45:34;;;;;;;4.3;3.4;;;;;;;22.08;58.59961;940.2783;;;;
2021/09/24 10:47:59;;;;;;;6.2;3.5;;;;;;;21.8;58.1875;940.3031;;;;
2021/09/24 10:50:23;;;;;;;3.7;3.2;;;;;;;22.46;58.42676;940.2974;;;;
2021/09/24 10:52:48;;;;;;;3;2.7;;;;;;;22.69;57.00195;940.2874;;;;
2021/09/24 10:55:18;;;;;;;3.7;3.2;;;;;;;23.09;55.78418;940.2615;;;;
2021/09/24 10:57:43;;;;;;;3.9;3;;;;;;;24.43;51.0498;940.2346;;;;
2021/09/24 11:00:10;;;;;;;3.5;3;;;;;;;24.71;51.15332;940.2418;;;;
2021/09/24 11:02:36;;;;;;;3.3;2.7;;;;;;;24.88;49.60352;940.1672;;;;
2021/09/24 11:05:00;;;;;;;5.4;2.9;;;;;;;25.71;46.63477;940.1118;;;;
2021/09/24 11:08:40;;;;;;;4.4;2.7;;;;;;;26.73;45.63965;940.1172;;;;
2021/09/24 11:11:05;;;;;;;3;2.6;;;;;;;27.12;43.95898;940.0665;;;;
2021/09/24 11:13:30;;;;;;;2.7;2.5;;;;;;;26.62;45.52148;940.0589;;;;
2021/09/24 11:15:55;;;;;;;3.4;3;;;;;;;25.45;47.63574;940.053;;;;
2021/09/24 11:18:22;;;;;;;3.9;2.7;;;;;;;25.34;49.92676;940.0346;;;;
2021/09/24 11:20:47;;;;;;;3.9;2.6;;;;;;;25.45;48.68652;940.0212;;;;
2021/09/24 11:23:13;;;;;;;2.7;2.5;;;;;;;25.86;46.55664;940.0421;;;;
2021/09/24 11:25:38;;;;;;;3.1;2.6;;;;;;;25.6;47.26172;939.9749;;;;
2021/09/24 11:28:03;;;;;;;97.9;9.9;;;;;;;24.83;48.3252;939.9387;;;;
2021/09/24 11:30:31;;;;;;;27.2;5;;;;;;;24.56;50.91211;939.9562;;;;
2021/09/24 11:32:55;;;;;;;2.8;2.6;;;;;;;24.81;50.71582;939.9476;;;;
2021/09/24 11:35:24;;;;;;;2.8;2.5;;;;;;;25.84;46.89648;939.9672;;;;
2021/09/24 11:37:49;;;;;;;2.8;2.6;;;;;;;26.19;45.19336;939.8547;;;;
2021/09/24 11:40:14;;;;;;;250.8;24;;;;;;;25.62;47.03906;939.8401;;;;
2021/09/24 11:42:41;;;;;;;2.4;2.2;;;;;;;25.75;46.93457;939.8325;;;;
2021/09/24 11:45:06;;;;;;;2.7;2.5;;;;;;;26.07;45.13477;939.7559;;;;
2021/09/24 11:47:32;;;;;;;4;2.4;;;;;;;26.24;44.25293;939.7477;;;;
2021/09/24 11:49:57;;;;;;;3.4;2.5;;;;;;;26.16;44.88379;939.7424;;;;
2021/09/24 11:52:23;;;;;;;2.9;2.7;;;;;;;26.12;45.63672;939.7242;;;;
2021/09/24 11:54:48;;;;;;;2.3;2.1;;;;;;;26.21;44.35547;939.7097;;;;
2021/09/24 11:57:13;;;;;;;2.5;2.3;;;;;;;26.66;43.34668;939.6586;;;;
2021/09/24 11:59:38;;;;;;;2.9;2.4;;;;;;;27.2;42.23633;939.6809;;;;
2021/09/24 12:02:03;;;;;;;2.6;2.3;;;;;;;27.6;41.76367;939.6733;;;;
2021/09/24 12:04:28;;;;;;;2.9;2.4;;;;;;;27.74;41.69434;939.6082;;;;
2021/09/24 12:06:55;;;;;;;3;2.3;;;;;;;27.67;42.26953;939.6789;;;;
2021/09/24 12:09:22;;;;;;;2.9;2.1;;;;;;;28.62;40.32422;939.6523;;;;
2021/09/24 12:11:47;;;;;;;23.4;4.6;;;;;;;29.11;39.49805;939.5637;;;;
2021/09/24 12:14:12;;;;;;;3.3;2.5;;;;;;;29.34;38.17188;939.5425;;;;
2021/09/24 12:16:40;;;;;;;3;2.3;;;;;;;29.6;39.37402;939.5326;;;;
2021/09/24 12:19:03;;;;;;;2.6;2.4;;;;;;;29.98;37.91602;939.4465;;;;
2021/09/24 12:21:29;;;;;;;2.6;2.4;;;;;;;31.9;34.01563;939.467;;;;
2021/09/24 12:23:54;;;;;;;1189.1;152.2;;;;;;;31.79;34.81055;939.4523;;;;
2021/09/24 12:26:19;;;;;;;764.3;136.9;;;;;;;32.8;31.82617;939.4574;;;;
2021/09/24 12:28:44;;;;;;;1999.9;675.1;;;;;;;32.65;33.11133;939.4264;;;;
2021/09/24 12:31:10;;;;;;;1999.9;515.3;;;;;;;34.52;30.57227;939.377;;;;
2021/09/24 12:33:35;;;;;;;1416.8;305.8;;;;;;;35.33;29.22559;939.4378;;;;
2021/09/24 12:36:01;;;;;;;602.3;126;;;;;;;35.91;28.63574;939.4602;;;;
2021/09/24 12:38:28;;;;;;;732;154.8;;;;;;;35.87;27.59277;939.4636;;;;
2021/09/24 12:40:53;;;;;;;437.3;97.8;;;;;;;37.55;26.23828;939.3619;;;;
2021/09/24 12:43:19;;;;;;;1152.8;276;;;;;;;38.23;24.83203;939.317;;;;
2021/09/24 12:45:44;;;;;;;1642.2;319.5;;;;;;;38.12;24.85059;939.31;;;;
2021/09/24 12:48:10;;;;;;;1999.9;594;;;;;;;35.02;30.59473;939.2807;;;;
2021/09/24 12:50:35;;;;;;;1352.2;325.9;;;;;;;34.91;29.40527;939.2647;;;;
2021/09/24 12:53:01;;;;;;;914.2;206.4;;;;;;;34.52;30.05469;939.2211;;;;
2021/09/24 12:55:27;;;;;;;428.8;93.3;;;;;;;36.31;27.16016;939.2621;;;;
2021/09/24 12:57:53;;;;;;;1178.6;223;;;;;;;35.92;28.16504;939.2305;;;;
2021/09/24 13:00:18;;;;;;;157.9;34.4;;;;;;;37.99;25.37793;939.1468;;;;
2021/09/24 13:02:44;;;;;;;54.5;13.2;;;;;;;39.58;23.10156;939.1501;;;;
2021/09/24 13:05:08;;;;;;;221.7;51.1;;;;;;;39.87;23.04297;939.116;;;;
2021/09/24 13:07:35;;;;;;;1156.9;298.8;;;;;;;37.4;26.16992;939.1258;;;;
2021/09/24 13:10:01;;;;;;;1999.9;631.7;;;;;;;37.28;25.79883;939.0864;;;;
2021/09/24 13:12:26;;;;;;;1327.2;290;;;;;;;35.26;29.11328;939.0701;;;;
2021/09/24 13:14:53;;;;;;;142.8;33.9;;;;;;;35.58;27.80566;939.0701;;;;
2021/09/24 13:17:18;;;;;;;115.4;22.9;;;;;;;35.78;28.37305;938.9977;;;;
2021/09/24 13:19:45;;;;;;;19.9;7.7;;;;;;;36.86;26.59863;939.0399;;;;
2021/09/24 13:22:10;;;;;;;69.2;13.8;;;;;;;37.4;25.89063;938.9447;;;;
2021/09/24 13:24:35;;;;;;;11.8;6.8;;;;;;;36.83;26.85254;938.9953;;;;
2021/09/24 13:27:00;;;;;;;18.7;5.7;;;;;;;37.49;25.68945;938.9356;;;;
2021/09/24 13:30:01;;;;;;;8.9;4.4;;;;;;;37.51;25.90918;938.983;;;;
2021/09/24 13:32:26;;;;;;;22.4;8;;;;;;;38.01;25.42676;938.9085;;;;
2021/09/24 13:34:51;;;;;;;4.6;3.9;;;;;;;37.99;25.52246;938.8989;;;;
2021/09/24 13:37:16;;;;;;;5;3.9;;;;;;;38.16;25.03418;938.8733;;;;
2021/09/24 13:39:41;;;;;;;18.2;6;;;;;;;37.93;25.55664;938.9082;;;;
2021/09/24 13:42:07;;;;;;;4.7;3.4;;;;;;;37.26;25.70117;938.8773;;;;
2021/09/24 13:44:32;;;;;;;115.1;23.3;;;;;;;35.32;28.5498;938.9005;;;;
2021/09/24 13:46:57;;;;;;;197.7;33.8;;;;;;;34.88;29.7041;938.8308;;;;
2021/09/24 13:49:22;;;;;;;21.4;7.8;;;;;;;36.6;26.83887;938.861;;;;
2021/09/24 13:51:47;;;;;;;56.5;15.9;;;;;;;34.7;30.04297;938.8028;;;;
2021/09/24 13:54:12;;;;;;;137.7;29.6;;;;;;;35.52;27.91016;938.7589;;;;
2021/09/24 13:56:37;;;;;;;9.9;3.9;;;;;;;36.43;27.07031;938.7498;;;;
2021/09/24 13:59:02;;;;;;;44.6;11.4;;;;;;;37.33;25.82617;938.736;;;;
2021/09/24 14:01:28;;;;;;;247.2;46.5;;;;;;;36.05;27.38672;938.7148;;;;
2021/09/24 14:03:53;;;;;;;9.1;3.7;;;;;;;35.95;27.41699;938.6253;;;;
2021/09/24 14:06:19;;;;;;;44.8;11.4;;;;;;;34.44;29.85645;938.6116;;;;
2021/09/24 14:08:47;;;;;;;481.2;95.4;;;;;;;34.43;29.26563;938.6465;;;;
2021/09/24 14:11:12;;;;;;;16.8;4.7;;;;;;;35.04;28.54492;938.649;;;;
2021/09/24 14:13:37;;;;;;;34.9;6.2;;;;;;;35.21;28.63965;938.6091;;;;
2021/09/24 14:16:02;;;;;;;42.5;11.9;;;;;;;34.81;29.1084;938.5637;;;;
2021/09/24 14:18:31;;;;;;;6.9;3.8;;;;;;;35.28;28.95801;938.6086;;;;
2021/09/24 14:20:58;;;;;;;87.7;19.8;;;;;;;35.48;28.1123;938.573;;;;
2021/09/24 14:23:23;;;;;;;41.8;7;;;;;;;34.57;29.0332;938.5694;;;;
2021/09/24 14:25:48;;;;;;;150.3;28.4;;;;;;;34.07;29.98828;938.5294;;;;
2021/09/24 14:28:13;;;;;;;68.2;17.5;;;;;;;33.8;29.9707;938.5961;;;;
2021/09/24 14:30:39;;;;;;;31.8;7.1;;;;;;;32.81;31.70703;938.6442;;;;